Monatstabelle

Bitte in den Auwahlmenüs den gewünschte Zeiraum wählen und die Schaltfläche "Anfrage absenden" betätigen. Beginn der Aufzeichnung ist 2007 - Dezember. Vor diesem Zeitraum sind keine Daten verfügbar.

2021 - Februar

 

Datum Temperatur (°C) Luftdruck (hPa) Luftfeuchte (%) Regen
(l/m²)
Wind (km/h)
avg: min: max: avg: min: max: avg: min: max: avg: max:
01.02.2021 -0,8 -4,8 6,3 997,2 994,9 1000,1 80 62 91 0,0 2,2 10,3
02.02.2021 2,9 -2,1 8,5 1004,8 1000,1 1006,9 83 69 91 0,0 1,3 6,8
03.02.2021 4,0 0,9 6,5 1003,5 999,9 1006,0 91 84 94 0,0 1,6 7,6
04.02.2021 7,1 1,6 14,0 1011,4 1003,2 1013,6 68 42 88 0,0 5,6 17,5
05.02.2021 3,7 1,0 9,7 1010,8 1009,7 1013,5 83 66 91 0,0 1,3 6,0
06.02.2021 3,3 0,8 5,3 1006,6 1003,9 1009,9 91 88 93 0,4 1,8 5,3
07.02.2021 2,6 0,6 4,3 994,6 991,1 1003,9 94 92 94 2,6 2,4 7,2
08.02.2021 0,0 -0,7 3,0 993,7 989,7 995,7 92 89 94 4,1 1,3 11,3
09.02.2021 0,2 -0,9 1,5 999,3 994,8 1001,6 93 91 95 1,0 1,0 5,5
10.02.2021 -0,4 -3,8 1,9 1000,1 996,5 1004,6 89 85 94 2,7 14,3 21,4
11.02.2021 -5,4 -7,1 -3,0 1017,6 1004,6 1022,4 70 57 86 0,0 19,9 28,3
12.02.2021 -7,3 -10,2 -2,0 1026,3 1022,4 1028,2 68 49 80 0,1 3,2 18,5
13.02.2021 -4,4 -10,1 -1,4 1030,6 1027,6 1032,4 70 45 82 0,0 8,9 15,8
14.02.2021 -4,9 -8,4 1,5 1033,5 1031,2 1034,4 66 42 79 0,3 6,0 18,8
15.02.2021 -3,6 -10,9 4,3 1028,5 1024,6 1033,8 59 28 84 0,7 1,5 8,5
16.02.2021 -0,4 -3,3 2,9 1017,4 1013,8 1024,6 87 65 90 0,4 0,6 5,0
17.02.2021 4,7 -1,5 9,8 1015,2 1011,6 1017,4 74 63 94 1,0 4,7 18,0
18.02.2021 4,4 0,1 13,4 1016,4 1014,9 1018,8 76 49 88 0,0 1,9 9,0
19.02.2021 3,4 -1,7 8,0 1017,4 1013,4 1018,2 87 74 92 0,0 2,3 6,9
20.02.2021 3,6 1,0 9,0 1020,3 1017,4 1021,4 89 80 95 0,0 1,7 12,4
21.02.2021 6,3 1,0 10,1 1018,9 1017,8 1020,6 83 70 94 0,0 11,2 17,5
22.02.2021 2,1 -0,5 7,1 1022,5 1017,2 1025,0 91 82 93 0,1 1,0 14,2
23.02.2021 5,2 -2,3 15,3 1030,9 1025,0 1032,7 83 60 95 0,0 2,0 7,1
24.02.2021 7,8 1,5 16,0 1030,2 1028,6 1032,9 75 53 86 0,1 1,3 7,1
25.02.2021 7,5 2,5 16,2 1026,2 1025,3 1028,6 78 57 88 0,0 2,3 9,5
26.02.2021 9,3 1,7 21,2 1022,4 1020,9 1025,4 64 29 91 0,0 3,5 16,9
27.02.2021 6,3 3,8 9,7 1029,0 1022,2 1030,2 68 58 80 0,0 13,2 23,3
avg. 2,1 1015,7 80   ---
  Summe Regen: 13,6  
 
Min-Datum 15.02.2021 08.02.2021 15.02.2021 --- ---
Min-Zeit 05:36 01:22 13:28 --- ---
Minimum -10,9 989,7 28 --- ---
 

Max-Datum

26.02.2021 14.02.2021 09.02.2021 08.02.2021 11.02.2021
Max-Zeit 13:48 21:42 10:12 02:52 10:50
Maximum 21,2 1034,4 95 4,1 28,3
 

 

  Letztes Jahr
gleiches Monat
Eistage max < 0°C 3 0
Frosttage min < 0°C 15 11
Sommertage max >=25°C 0 0
Heiße Tage max >=30°C 0 0

 

<<< nach oben >>>